Time;durP1;ratioP1;P1;durP2;ratioP2;P2;SDS_P1;SDS_P2;PMS_P1;PMS_P2;Temp;Humidity;BMP_temperature;BMP_pressure;BME280_temperature;BME280_humidity;BME280_pressure;Samples;Min_cycle;Max_cycle;Signal;HPM_P1;HPM_P2
2023/12/15 00:00:08;;;;;;;1.20;1.05;;;;;;;2.92;100.00;101995.97;5023346;28;20198;-68
2023/12/15 00:02:40;;;;;;;3.08;1.63;;;;;;;2.95;100.00;101996.56;5021416;28;20236;-69
2023/12/15 00:05:09;;;;;;;3.53;2.45;;;;;;;2.94;100.00;102002.91;5030408;28;20224;-68
2023/12/15 00:07:39;;;;;;;6.38;3.38;;;;;;;3.08;100.00;102000.94;5030208;28;20198;-67
2023/12/15 00:10:09;;;;;;;1.60;1.35;;;;;;;3.11;100.00;102006.00;5026308;28;20186;-69
2023/12/15 00:12:38;;;;;;;5.13;3.90;;;;;;;3.10;100.00;102004.34;5027563;28;20201;-69
2023/12/15 00:15:10;;;;;;;4.10;3.15;;;;;;;3.09;100.00;102007.97;5020679;28;20225;-69
2023/12/15 00:17:39;;;;;;;7.43;3.13;;;;;;;3.13;100.00;102014.75;5028248;28;20200;-68
2023/12/15 00:20:10;;;;;;;6.30;5.70;;;;;;;3.12;100.00;102013.06;5030171;28;20190;-67
2023/12/15 00:22:38;;;;;;;6.00;4.03;;;;;;;3.12;100.00;102013.06;5019428;28;20225;-69
2023/12/15 00:25:08;;;;;;;1.85;1.67;;;;;;;3.30;100.00;102014.19;5020041;28;20217;-69
2023/12/15 00:27:36;;;;;;;2.95;2.75;;;;;;;3.41;100.00;102016.84;5027696;28;20192;-70
2023/12/15 00:30:08;;;;;;;3.20;2.88;;;;;;;3.33;100.00;102016.63;5037578;28;20190;-69
2023/12/15 00:32:37;;;;;;;5.45;2.65;;;;;;;3.34;100.00;102023.69;5032530;28;20289;-68
2023/12/15 00:35:07;;;;;;;3.35;2.35;;;;;;;3.37;100.00;102023.44;5020628;28;20225;-69
2023/12/15 00:37:36;;;;;;;2.28;1.92;;;;;;;3.42;100.00;102026.56;5025461;28;20658;-69
2023/12/15 00:40:06;;;;;;;3.33;1.98;;;;;;;3.52;100.00;102032.84;5030139;28;20267;-66
2023/12/15 00:42:35;;;;;;;1.73;1.63;;;;;;;3.32;100.00;102039.88;5027261;28;20260;-68
2023/12/15 00:45:05;;;;;;;1.90;1.80;;;;;;;3.52;100.00;102037.34;5031028;28;20217;-69
2023/12/15 00:47:35;;;;;;;8.32;3.13;;;;;;;3.51;100.00;102044.53;5020360;28;20637;-69
2023/12/15 00:50:05;;;;;;;2.78;2.00;;;;;;;3.43;100.00;102047.88;5034246;28;20203;-69
2023/12/15 00:52:34;;;;;;;1.88;1.77;;;;;;;3.47;100.00;102048.44;5031486;28;20678;-70
2023/12/15 00:55:03;;;;;;;2.03;1.65;;;;;;;3.49;100.00;102049.16;5026853;28;20249;-69
2023/12/15 00:57:32;;;;;;;2.25;1.85;;;;;;;3.39;100.00;102049.06;5021089;28;20194;-67
2023/12/15 01:00:02;;;;;;;2.75;2.55;;;;;;;3.55;100.00;102055.81;5025239;28;20251;-70
2023/12/15 01:02:31;;;;;;;3.03;1.60;;;;;;;3.63;100.00;102056.03;5017928;28;20638;-70
2023/12/15 01:05:02;;;;;;;1.13;1.02;;;;;;;3.64;100.00;102058.56;5028146;28;20221;-68
2023/12/15 01:07:31;;;;;;;4.03;2.45;;;;;;;3.67;100.00;102069.03;5031856;28;20193;-69
2023/12/15 01:10:00;;;;;;;6.30;5.55;;;;;;;3.57;100.00;102078.81;5030706;28;20190;-68
2023/12/15 01:12:29;;;;;;;2.65;1.90;;;;;;;3.47;100.00;102073.38;5035025;28;20209;-68
2023/12/15 01:14:58;;;;;;;4.28;3.97;;;;;;;3.43;100.00;102079.13;5027800;28;20213;-68
2023/12/15 01:17:26;;;;;;;2.58;2.45;;;;;;;3.53;100.00;102082.72;5034278;28;20221;-70
2023/12/15 01:19:55;;;;;;;2.97;1.55;;;;;;;3.34;100.00;102077.22;5031788;28;20193;-69
2023/12/15 01:22:26;;;;;;;4.03;3.58;;;;;;;3.43;100.00;102074.63;5027118;28;20697;-69
2023/12/15 01:24:54;;;;;;;2.70;2.50;;;;;;;3.45;100.00;102079.81;5034600;28;20219;-68
2023/12/15 01:27:23;;;;;;;3.88;3.33;;;;;;;3.56;100.00;102078.94;5025069;28;20609;-68
2023/12/15 01:29:52;;;;;;;2.20;2.00;;;;;;;3.46;100.00;102079.72;5033334;28;20190;-70
2023/12/15 01:32:21;;;;;;;5.10;4.47;;;;;;;3.59;100.00;102074.16;5026366;28;20646;-69
2023/12/15 01:34:50;;;;;;;2.97;2.50;;;;;;;3.66;100.00;102075.38;5026951;28;20221;-68
2023/12/15 01:37:19;;;;;;;3.33;2.05;;;;;;;3.65;100.00;102070.13;5030629;28;20737;-69
2023/12/15 01:39:50;;;;;;;2.42;2.20;;;;;;;3.62;100.00;102081.97;5022265;28;20193;-70
2023/12/15 01:42:18;;;;;;;3.58;3.28;;;;;;;3.61;100.00;102090.97;5021908;28;20273;-69
2023/12/15 01:44:47;;;;;;;3.88;2.97;;;;;;;3.62;100.00;102095.34;5026824;28;20212;-68
2023/12/15 01:47:18;;;;;;;3.03;1.80;;;;;;;3.58;100.00;102099.25;5031639;28;20650;-69
2023/12/15 01:49:48;;;;;;;5.05;4.10;;;;;;;3.53;100.00;102111.31;5031396;28;20264;-67
2023/12/15 01:52:17;;;;;;;2.83;2.63;;;;;;;3.42;100.00;102117.56;5034087;28;20570;-68
2023/12/15 01:54:46;;;;;;;3.25;3.05;;;;;;;3.43;100.00;102114.75;5033739;28;20713;-66
2023/12/15 01:57:17;;;;;;;1.30;1.00;;;;;;;3.41;100.00;102122.06;5027809;28;20682;-69
2023/12/15 01:59:47;;;;;;;1.55;1.42;;;;;;;3.25;100.00;102120.75;5022562;28;20205;-69
2023/12/15 02:02:16;;;;;;;4.78;3.05;;;;;;;3.20;100.00;102125.63;5022032;28;20280;-68
2023/12/15 02:04:46;;;;;;;11.27;2.80;;;;;;;3.04;100.00;102128.72;5018301;28;20237;-68
2023/12/15 02:07:15;;;;;;;1.90;1.50;;;;;;;2.81;100.00;102122.50;5032248;28;20243;-67
2023/12/15 02:09:44;;;;;;;3.92;3.63;;;;;;;2.60;100.00;102124.22;5030421;28;20696;-68
2023/12/15 02:12:13;;;;;;;2.90;2.65;;;;;;;2.44;100.00;102129.06;5026141;28;20209;-67
2023/12/15 02:14:45;;;;;;;2.58;1.85;;;;;;;2.36;100.00;102132.34;5026377;28;20210;-68
2023/12/15 02:17:14;;;;;;;2.42;2.13;;;;;;;2.23;100.00;102130.75;5020319;28;20189;-67
2023/12/15 02:19:43;;;;;;;3.55;3.25;;;;;;;2.12;100.00;102128.88;5033952;28;20619;-68
2023/12/15 02:22:12;;;;;;;5.30;2.45;;;;;;;1.99;100.00;102128.97;5022627;28;20200;-67
2023/12/15 02:24:42;;;;;;;3.72;2.38;;;;;;;1.78;100.00;102133.28;5024277;28;20218;-68
2023/12/15 02:27:11;;;;;;;4.30;4.00;;;;;;;1.69;100.00;102131.28;5019170;28;20201;-67
2023/12/15 02:29:40;;;;;;;1.00;0.90;;;;;;;1.58;100.00;102134.75;5030417;28;20204;-67
2023/12/15 02:32:09;;;;;;;1.40;1.30;;;;;;;1.44;100.00;102136.75;5025770;28;20186;-68
2023/12/15 02:34:38;;;;;;;7.43;4.00;;;;;;;1.26;100.00;102139.78;5023432;28;20272;-68
2023/12/15 02:37:07;;;;;;;2.10;1.77;;;;;;;1.09;100.00;102134.84;5027441;28;20669;-68
2023/12/15 02:39:38;;;;;;;2.45;2.25;;;;;;;0.99;100.00;102139.13;5024900;28;20193;-68
2023/12/15 02:42:09;;;;;;;1.75;1.65;;;;;;;0.98;100.00;102144.56;5021788;28;20192;-67
2023/12/15 02:44:37;;;;;;;1.55;1.45;;;;;;;1.04;100.00;102147.63;5021131;28;20751;-67
2023/12/15 02:47:06;;;;;;;2.25;1.25;;;;;;;1.04;100.00;102144.13;5020613;28;20194;-67
2023/12/15 02:49:38;;;;;;;2.92;1.88;;;;;;;1.00;100.00;102143.50;5022064;28;20196;-68
2023/12/15 02:52:07;;;;;;;2.13;1.30;;;;;;;1.15;100.00;102153.06;5029578;28;20198;-68
2023/12/15 02:54:36;;;;;;;1.30;1.17;;;;;;;1.26;100.00;102155.78;5026642;28;20251;-68
2023/12/15 02:57:05;;;;;;;2.85;2.17;;;;;;;1.25;100.00;102159.44;5034247;28;20200;-70
2023/12/15 02:59:36;;;;;;;1.38;1.27;;;;;;;1.33;100.00;102161.53;5025878;28;20684;-69
2023/12/15 03:02:04;;;;;;;1.58;1.48;;;;;;;1.36;100.00;102169.28;5026020;28;20717;-68
2023/12/15 03:04:37;;;;;;;1.80;1.70;;;;;;;1.34;100.00;102167.72;5030646;28;20218;-69
2023/12/15 03:07:05;;;;;;;2.83;2.60;;;;;;;1.32;100.00;102165.16;5028819;28;20186;-68
2023/12/15 03:09:34;;;;;;;1.38;1.27;;;;;;;1.36;100.00;102168.44;5030333;28;20197;-69
2023/12/15 03:12:03;;;;;;;12.32;2.67;;;;;;;1.20;100.00;102177.59;5023271;28;20247;-69
2023/12/15 03:14:32;;;;;;;1.15;1.05;;;;;;;1.05;100.00;102177.81;5025077;28;20214;-69
2023/12/15 03:17:02;;;;;;;1.70;1.60;;;;;;;1.15;100.00;102185.06;5033757;28;20215;-68
2023/12/15 03:19:31;;;;;;;2.13;1.92;;;;;;;1.11;100.00;102188.06;5028571;28;20197;-66
2023/12/15 03:22:02;;;;;;;4.65;3.90;;;;;;;1.10;100.00;102184.53;5033950;28;20232;-67
2023/12/15 03:24:31;;;;;;;2.85;1.27;;;;;;;1.23;100.00;102188.00;5034288;28;20232;-67
2023/12/15 03:27:00;;;;;;;2.10;1.90;;;;;;;1.31;100.00;102188.31;5024449;28;20194;-68
2023/12/15 03:29:28;;;;;;;2.35;1.73;;;;;;;1.31;100.00;102200.78;5039841;28;20194;-68
2023/12/15 03:31:57;;;;;;;1.52;1.42;;;;;;;1.24;100.00;102204.88;5028512;28;20185;-68
2023/12/15 03:34:28;;;;;;;1.85;1.60;;;;;;;1.30;100.00;102202.63;5023122;28;20210;-68
2023/12/15 03:36:57;;;;;;;3.90;3.70;;;;;;;1.25;100.00;102194.09;5028378;28;20283;-67
2023/12/15 03:39:26;;;;;;;1.77;1.67;;;;;;;1.28;100.00;102204.53;5028433;28;20276;-68
2023/12/15 03:41:55;;;;;;;2.38;1.85;;;;;;;1.33;100.00;102206.03;5032333;28;20185;-69
2023/12/15 03:44:23;;;;;;;3.85;2.90;;;;;;;1.26;100.00;102209.13;5016812;28;20318;-69
2023/12/15 03:46:52;;;;;;;7.03;3.00;;;;;;;1.26;100.00;102211.78;5024486;28;20284;-69
2023/12/15 03:49:21;;;;;;;2.20;2.10;;;;;;;1.25;100.00;102211.91;5028191;28;20193;-69
2023/12/15 03:51:51;;;;;;;4.90;2.38;;;;;;;1.29;100.00;102203.59;5025657;28;20550;-69
2023/12/15 03:54:20;;;;;;;1.35;1.25;;;;;;;1.35;100.00;102204.09;5027318;28;20771;-68
2023/12/15 03:56:56;;;;;;;2.28;2.08;;;;;;;1.41;100.00;102206.31;5028815;28;20193;-69
2023/12/15 03:59:25;;;;;;;2.45;2.25;;;;;;;1.41;100.00;102216.97;5027423;28;20192;-68
2023/12/15 04:01:54;;;;;;;2.55;2.35;;;;;;;1.45;100.00;102211.34;5025683;28;20201;-68
2023/12/15 04:04:23;;;;;;;1.73;1.63;;;;;;;1.52;100.00;102209.91;5026100;28;20769;-69
2023/12/15 04:06:53;;;;;;;2.28;1.77;;;;;;;1.49;100.00;102209.28;5040489;28;20194;-69
2023/12/15 04:09:22;;;;;;;2.30;2.20;;;;;;;1.38;100.00;102212.72;5025114;28;20264;-68
2023/12/15 04:11:51;;;;;;;1.80;0.60;;;;;;;1.40;100.00;102215.28;5024075;28;20187;-68
2023/12/15 04:14:20;;;;;;;3.10;2.90;;;;;;;1.41;100.00;102211.63;5019683;28;20722;-68
2023/12/15 04:16:49;;;;;;;8.52;1.73;;;;;;;1.43;100.00;102220.41;5017068;28;20200;-69
2023/12/15 04:19:18;;;;;;;2.03;1.92;;;;;;;1.54;100.00;102212.47;5021504;28;20263;-69
2023/12/15 04:21:47;;;;;;;2.10;2.00;;;;;;;1.44;100.00;102222.09;5026151;28;20194;-69
2023/12/15 04:24:17;;;;;;;1.50;1.40;;;;;;;1.42;100.00;102224.03;5021418;28;20272;-69
2023/12/15 04:26:47;;;;;;;3.58;2.10;;;;;;;1.37;100.00;102223.50;5030539;28;20278;-68
2023/12/15 04:29:17;;;;;;;4.45;3.30;;;;;;;1.57;100.00;102233.59;5032169;28;20185;-68
2023/12/15 04:31:45;;;;;;;2.35;2.22;;;;;;;1.56;100.00;102240.72;5026301;28;20198;-68
2023/12/15 04:34:14;;;;;;;3.20;1.92;;;;;;;1.58;100.00;102241.47;5031407;28;20209;-69
2023/12/15 04:36:43;;;;;;;1.05;0.93;;;;;;;1.67;100.00;102247.97;5027782;28;20193;-69
2023/12/15 04:39:12;;;;;;;3.90;1.90;;;;;;;1.64;100.00;102245.53;5028948;28;20198;-69
2023/12/15 04:41:42;;;;;;;2.60;2.40;;;;;;;1.47;100.00;102243.22;5029870;28;20270;-69
2023/12/15 04:44:11;;;;;;;1.10;1.00;;;;;;;1.48;100.00;102244.94;5031991;28;20229;-69
2023/12/15 04:46:41;;;;;;;1.00;0.90;;;;;;;1.35;100.00;102244.13;5028521;28;20685;-69
2023/12/15 04:49:10;;;;;;;2.17;1.92;;;;;;;1.34;100.00;102243.25;5027929;28;20607;-67
2023/12/15 04:51:38;;;;;;;3.92;3.70;;;;;;;1.22;100.00;102244.97;5028572;28;20204;-67
2023/12/15 04:54:07;;;;;;;1.83;1.73;;;;;;;1.38;100.00;102238.53;5033684;28;20189;-69
2023/12/15 04:56:36;;;;;;;1.63;1.52;;;;;;;1.42;100.00;102238.22;5026494;28;20229;-69
2023/12/15 04:59:06;;;;;;;2.08;1.80;;;;;;;1.61;100.00;102245.72;5023796;28;20193;-69
2023/12/15 05:01:35;;;;;;;1.92;1.83;;;;;;;1.40;100.00;102248.16;5026485;28;20276;-68
2023/12/15 05:04:04;;;;;;;2.45;2.25;;;;;;;1.41;100.00;102257.00;5023217;28;20190;-69
2023/12/15 05:06:34;;;;;;;1.65;1.55;;;;;;;1.29;100.00;102253.41;5026821;28;20233;-68
2023/12/15 05:09:04;;;;;;;2.70;2.50;;;;;;;1.23;100.00;102254.69;5027834;28;20193;-69
2023/12/15 05:11:35;;;;;;;2.85;1.58;;;;;;;1.44;100.00;102248.78;5027249;28;20225;-69
2023/12/15 05:14:05;;;;;;;1.30;1.02;;;;;;;1.31;100.00;102257.66;5041728;28;20198;-69
2023/12/15 05:16:34;;;;;;;2.72;2.53;;;;;;;1.49;100.00;102255.50;5029785;28;20185;-69
2023/12/15 05:19:03;;;;;;;1.27;1.17;;;;;;;1.55;100.00;102257.69;5030909;28;20297;-66
2023/12/15 05:21:32;;;;;;;3.60;3.30;;;;;;;1.54;100.00;102257.84;5024627;28;20203;-68
2023/12/15 05:24:01;;;;;;;1.63;1.52;;;;;;;1.40;100.00;102268.66;5033043;28;20252;-69
2023/12/15 05:26:30;;;;;;;8.30;3.05;;;;;;;1.31;100.00;102275.47;5026447;28;20606;-68
2023/12/15 05:28:59;;;;;;;1.20;1.10;;;;;;;1.34;100.00;102285.94;5029664;28;20678;-69
2023/12/15 05:31:29;;;;;;;1.83;1.73;;;;;;;1.40;100.00;102288.16;5024727;28;20280;-68
2023/12/15 05:33:58;;;;;;;3.13;1.95;;;;;;;1.24;100.00;102293.72;5029563;28;20668;-68
2023/12/15 05:36:27;;;;;;;2.47;2.25;;;;;;;1.18;100.00;102295.97;5030112;28;20243;-69
2023/12/15 05:38:56;;;;;;;2.15;2.05;;;;;;;1.06;100.00;102291.50;5021287;28;20564;-68
2023/12/15 05:41:25;;;;;;;3.35;2.30;;;;;;;1.18;100.00;102288.81;5021392;28;20201;-68
2023/12/15 05:43:53;;;;;;;4.03;2.65;;;;;;;1.31;100.00;102286.97;5033160;28;20571;-67
2023/12/15 05:46:22;;;;;;;2.55;1.67;;;;;;;1.17;100.00;102292.44;5026473;28;20769;-68
2023/12/15 05:48:52;;;;;;;1.88;1.58;;;;;;;1.36;100.00;102296.47;5031845;28;20284;-68
2023/12/15 05:51:22;;;;;;;3.50;3.28;;;;;;;1.25;100.00;102297.25;5021775;28;20280;-68
2023/12/15 05:53:50;;;;;;;3.60;1.25;;;;;;;1.19;100.00;102298.53;5031905;28;20209;-70
2023/12/15 05:56:26;;;;;;;1.20;0.80;;;;;;;1.27;100.00;102289.97;5028897;28;20188;-69
2023/12/15 05:58:55;;;;;;;5.45;3.35;;;;;;;1.48;100.00;102287.63;5026280;28;20216;-68
2023/12/15 06:01:24;;;;;;;2.42;1.73;;;;;;;1.63;100.00;102287.38;5029867;28;20193;-68
2023/12/15 06:03:55;;;;;;;7.25;4.43;;;;;;;1.71;100.00;102294.81;5017709;28;20194;-67
2023/12/15 06:06:24;;;;;;;6.57;3.60;;;;;;;1.72;100.00;102304.53;5033491;28;20221;-69
2023/12/15 06:08:52;;;;;;;2.25;2.05;;;;;;;1.78;100.00;102309.44;5027283;28;20304;-68
2023/12/15 06:11:21;;;;;;;1.58;1.48;;;;;;;1.61;100.00;102312.44;5029338;28;20211;-68
2023/12/15 06:13:50;;;;;;;2.20;1.95;;;;;;;1.67;100.00;102315.53;5030643;28;20189;-69
2023/12/15 06:16:20;;;;;;;1.15;1.05;;;;;;;1.85;100.00;102315.16;5022663;28;20228;-68
2023/12/15 06:18:49;;;;;;;2.03;1.85;;;;;;;1.88;100.00;102322.97;5023001;28;20185;-68
2023/12/15 06:21:23;;;;;;;8.35;6.80;;;;;;;2.03;100.00;102338.69;5027044;28;20200;-68
2023/12/15 06:23:52;;;;;;;4.47;3.90;;;;;;;2.06;100.00;102342.97;5027174;28;20585;-68
2023/12/15 06:26:23;;;;;;;3.25;2.38;;;;;;;1.93;100.00;102344.84;5026804;28;20275;-68
2023/12/15 06:28:53;;;;;;;3.42;3.15;;;;;;;1.95;100.00;102343.75;5023566;28;20212;-68
2023/12/15 06:31:25;;;;;;;6.20;5.53;;;;;;;1.97;100.00;102341.84;5024918;28;20650;-68
2023/12/15 06:33:54;;;;;;;2.65;2.45;;;;;;;1.87;100.00;102343.47;5025335;28;20524;-69
2023/12/15 06:36:26;;;;;;;4.20;3.80;;;;;;;1.98;100.00;102340.88;5026463;28;20186;-68
2023/12/15 06:38:58;;;;;;;3.13;2.92;;;;;;;2.18;100.00;102353.59;5019539;28;20194;-68
2023/12/15 06:41:27;;;;;;;4.10;3.83;;;;;;;2.33;100.00;102356.09;5024281;28;20236;-69
2023/12/15 06:43:56;;;;;;;4.30;2.83;;;;;;;2.37;100.00;102357.63;5024612;28;20192;-69
2023/12/15 06:46:25;;;;;;;4.40;3.90;;;;;;;2.41;100.00;102364.44;5026702;28;20230;-68
2023/12/15 06:48:54;;;;;;;5.35;2.78;;;;;;;2.50;100.00;102371.75;5027786;28;20605;-71
2023/12/15 06:51:24;;;;;;;7.00;2.88;;;;;;;2.51;100.00;102377.00;5026990;28;20193;-68
2023/12/15 06:53:53;;;;;;;1.95;1.83;;;;;;;2.48;100.00;102377.22;5026646;28;20554;-69
2023/12/15 06:56:22;;;;;;;11.07;4.40;;;;;;;2.63;100.00;102373.41;5018365;28;20285;-69
2023/12/15 06:58:51;;;;;;;6.75;5.03;;;;;;;2.62;100.00;102379.69;5029776;28;20753;-68
2023/12/15 07:01:21;;;;;;;3.20;2.53;;;;;;;2.52;100.00;102388.50;5024479;28;20186;-69
2023/12/15 07:03:50;;;;;;;1.77;1.67;;;;;;;2.62;100.00;102384.19;5017140;28;20185;-69
2023/12/15 07:06:19;;;;;;;3.90;3.60;;;;;;;2.72;100.00;102387.88;5027785;28;20452;-67
2023/12/15 07:08:53;;;;;;;3.38;3.13;;;;;;;2.69;100.00;102395.28;5030297;28;20185;-69
2023/12/15 07:11:22;;;;;;;3.05;1.92;;;;;;;2.79;100.00;102399.84;5018602;28;20217;-68
2023/12/15 07:13:56;;;;;;;3.83;3.53;;;;;;;2.69;100.00;102393.47;5028202;28;20189;-68
2023/12/15 07:16:24;;;;;;;5.60;5.20;;;;;;;2.72;100.00;102395.91;5023975;28;20244;-68
2023/12/15 07:18:53;;;;;;;5.15;4.72;;;;;;;2.78;100.00;102392.78;5024282;28;20695;-68
2023/12/15 07:21:22;;;;;;;4.57;3.85;;;;;;;2.80;100.00;102401.56;5024123;28;20657;-68
2023/12/15 07:23:52;;;;;;;2.30;2.10;;;;;;;2.83;100.00;102398.63;5024566;28;20232;-69
2023/12/15 07:26:21;;;;;;;2.88;2.63;;;;;;;2.81;100.00;102400.56;5019988;28;20209;-68
2023/12/15 07:28:50;;;;;;;6.70;5.65;;;;;;;2.61;100.00;102411.91;5026120;28;20200;-69
2023/12/15 07:31:19;;;;;;;8.98;7.93;;;;;;;2.78;100.00;102411.50;5029272;28;20200;-70
2023/12/15 07:33:48;;;;;;;9.93;5.32;;;;;;;2.76;100.00;102402.72;5038954;28;20201;-70
2023/12/15 07:36:17;;;;;;;6.78;6.18;;;;;;;2.75;100.00;102410.88;5022978;28;20211;-70
2023/12/15 07:38:47;;;;;;;2.97;2.65;;;;;;;2.87;100.00;102413.47;5030725;28;20272;-69
2023/12/15 07:41:17;;;;;;;6.43;5.80;;;;;;;2.82;100.00;102404.94;5030746;28;20615;-70
2023/12/15 07:43:46;;;;;;;5.78;5.32;;;;;;;2.92;100.00;102413.13;5022107;28;20189;-69
2023/12/15 07:46:18;;;;;;;3.97;3.67;;;;;;;2.86;100.00;102410.91;5033270;28;20618;-69
2023/12/15 07:48:46;;;;;;;3.28;3.08;;;;;;;2.92;100.00;102418.47;5033670;28;20189;-68
2023/12/15 07:51:20;;;;;;;6.32;5.90;;;;;;;2.73;100.00;102410.97;5027454;28;20268;-69
2023/12/15 07:53:49;;;;;;;3.95;3.63;;;;;;;2.79;100.00;102420.38;5031454;28;20291;-70
2023/12/15 07:56:23;;;;;;;9.32;6.18;;;;;;;2.96;100.00;102423.47;5033520;28;20216;-68
2023/12/15 07:58:52;;;;;;;4.70;4.30;;;;;;;2.98;100.00;102428.72;5031833;28;20189;-68
2023/12/15 08:01:22;;;;;;;5.03;4.53;;;;;;;3.11;100.00;102439.31;5022729;28;20632;-69
2023/12/15 08:03:51;;;;;;;7.57;3.72;;;;;;;3.12;100.00;102441.91;5028189;28;20291;-68
2023/12/15 08:06:21;;;;;;;5.80;5.15;;;;;;;3.03;100.00;102447.94;5030445;28;20263;-69
2023/12/15 08:08:51;;;;;;;5.63;3.40;;;;;;;2.78;100.00;102440.91;5024177;28;20198;-70
2023/12/15 08:11:22;;;;;;;5.60;5.15;;;;;;;2.80;100.00;102433.63;5036373;28;20437;-69
2023/12/15 08:13:52;;;;;;;2.83;2.72;;;;;;;3.04;100.00;102431.78;5030543;28;20193;-68
2023/12/15 08:16:21;;;;;;;6.22;5.75;;;;;;;3.01;100.00;102423.97;5028256;28;20194;-69
2023/12/15 08:18:50;;;;;;;12.35;5.65;;;;;;;3.12;100.00;102424.97;5025606;28;20195;-69
2023/12/15 08:21:19;;;;;;;14.77;5.20;;;;;;;3.12;100.00;102430.34;5028380;28;20194;-67
2023/12/15 08:23:48;;;;;;;5.47;5.05;;;;;;;3.43;100.00;102437.75;5032230;28;20197;-69
2023/12/15 08:26:27;;;;;;;7.00;5.22;;;;;;;3.25;100.00;102429.28;5029380;28;20229;-70
2023/12/15 08:28:56;;;;;;;8.10;7.35;;;;;;;3.40;100.00;102429.94;5021306;28;20196;-69
2023/12/15 08:31:25;;;;;;;3.85;3.50;;;;;;;3.54;100.00;102421.66;5026652;28;20216;-69
2023/12/15 08:33:55;;;;;;;7.85;5.40;;;;;;;3.69;100.00;102425.84;5025743;28;20195;-68
2023/12/15 08:36:24;;;;;;;4.38;4.07;;;;;;;3.65;100.00;102432.41;5030281;28;20192;-68
2023/12/15 08:38:53;;;;;;;4.07;3.78;;;;;;;3.62;100.00;102424.63;5035691;28;20574;-71
2023/12/15 08:41:23;;;;;;;11.80;5.68;;;;;;;3.60;100.00;102428.38;5030432;28;20197;-69
2023/12/15 08:43:52;;;;;;;6.60;6.03;;;;;;;3.53;100.00;102428.03;5029021;28;20185;-67
2023/12/15 08:46:22;;;;;;;7.10;3.78;;;;;;;3.63;100.00;102437.00;5033626;28;20213;-69
2023/12/15 08:48:51;;;;;;;4.78;3.85;;;;;;;3.63;100.00;102439.69;5025488;28;20288;-69
2023/12/15 08:51:20;;;;;;;5.38;4.82;;;;;;;3.73;100.00;102432.66;5030387;28;20223;-68
2023/12/15 08:53:49;;;;;;;7.63;6.57;;;;;;;3.88;100.00;102436.78;5030704;28;20213;-68
2023/12/15 08:56:18;;;;;;;9.88;9.00;;;;;;;3.99;100.00;102446.66;5028061;28;20181;-69
2023/12/15 08:58:48;;;;;;;5.95;5.32;;;;;;;4.07;100.00;102456.75;5029245;28;20185;-67
2023/12/15 09:01:18;;;;;;;7.80;7.32;;;;;;;4.09;100.00;102463.72;5035178;28;20197;-69
2023/12/15 09:03:47;;;;;;;11.07;5.65;;;;;;;4.25;100.00;102472.25;5029637;28;20241;-69
2023/12/15 09:06:16;;;;;;;11.65;8.45;;;;;;;4.17;100.00;102471.13;5031069;28;20770;-67
2023/12/15 09:08:56;;;;;;;4.50;2.83;;;;;;;4.34;100.00;102482.22;5024080;28;20610;-68
2023/12/15 09:11:26;;;;;;;9.63;8.55;;;;;;;4.39;100.00;102484.53;5033297;28;20194;-68
2023/12/15 09:13:56;;;;;;;8.05;7.03;;;;;;;4.44;100.00;102482.34;5029877;28;20193;-69
2023/12/15 09:16:25;;;;;;;4.22;3.92;;;;;;;4.56;100.00;102485.84;5027236;28;20185;-68
2023/12/15 09:18:54;;;;;;;10.30;6.32;;;;;;;4.55;100.00;102495.69;5030261;28;20194;-70
2023/12/15 09:21:23;;;;;;;7.78;7.18;;;;;;;4.62;100.00;102496.94;5027812;28;20272;-69
2023/12/15 09:23:53;;;;;;;7.70;6.95;;;;;;;4.61;100.00;102505.94;5025982;28;20194;-69
2023/12/15 09:26:22;;;;;;;5.43;4.93;;;;;;;4.51;100.00;102514.84;5024061;28;20198;-69
2023/12/15 09:28:51;;;;;;;7.05;6.15;;;;;;;4.53;100.00;102516.44;5033494;28;20190;-69
2023/12/15 09:31:21;;;;;;;12.63;8.40;;;;;;;4.67;100.00;102516.19;5022296;28;20266;-67
2023/12/15 09:33:50;;;;;;;4.85;4.30;;;;;;;4.64;100.00;102527.16;5023812;28;20190;-67
2023/12/15 09:36:19;;;;;;;5.30;4.05;;;;;;;4.60;100.00;102528.38;5026999;28;20248;-68
2023/12/15 09:38:47;;;;;;;7.30;4.05;;;;;;;4.70;100.00;102523.97;5036240;28;20236;-68
2023/12/15 09:41:16;;;;;;;8.65;6.15;;;;;;;4.76;100.00;102534.19;5031237;28;20217;-67
2023/12/15 09:43:45;;;;;;;4.95;4.13;;;;;;;4.76;100.00;102536.03;5034695;28;20190;-69
2023/12/15 09:46:14;;;;;;;11.77;6.70;;;;;;;4.90;100.00;102524.16;5033942;28;20458;-69
2023/12/15 09:48:45;;;;;;;8.55;4.15;;;;;;;5.04;100.00;102516.69;5031488;28;20590;-68
2023/12/15 09:51:19;;;;;;;4.72;4.35;;;;;;;5.25;100.00;102524.78;5036039;28;20272;-69
2023/12/15 09:53:49;;;;;;;5.97;5.38;;;;;;;5.13;100.00;102520.47;5034184;28;20287;-70
2023/12/15 09:56:18;;;;;;;8.55;6.47;;;;;;;4.95;100.00;102528.19;5024141;28;20185;-69
2023/12/15 09:58:47;;;;;;;7.05;6.35;;;;;;;4.98;100.00;102524.41;5035013;28;20208;-68
2023/12/15 10:01:16;;;;;;;9.00;5.78;;;;;;;5.06;100.00;102524.63;5035737;28;20197;-67
2023/12/15 10:03:48;;;;;;;6.55;4.47;;;;;;;5.11;100.00;102534.00;5025184;28;20193;-69
2023/12/15 10:06:18;;;;;;;5.18;4.68;;;;;;;5.11;100.00;102536.69;5025592;28;20192;-69
2023/12/15 10:08:47;;;;;;;5.65;5.05;;;;;;;5.15;100.00;102537.25;5024686;28;20198;-69
2023/12/15 10:11:33;;;;;;;8.13;4.90;;;;;;;4.98;100.00;102529.78;5031737;28;20199;-69
2023/12/15 10:14:07;;;;;;;6.30;4.97;;;;;;;4.99;100.00;102531.44;5031338;28;20194;-69
2023/12/15 10:16:37;;;;;;;8.93;6.03;;;;;;;5.06;100.00;102541.56;5026522;28;20228;-69
2023/12/15 10:19:09;;;;;;;6.85;3.95;;;;;;;4.84;100.00;102538.09;5035069;28;20191;-68
2023/12/15 10:21:38;;;;;;;9.88;6.40;;;;;;;4.92;100.00;102543.69;5025256;28;20193;-68
2023/12/15 10:24:21;;;;;;;5.60;3.75;;;;;;;4.78;100.00;102545.66;5022818;28;20182;-68
2023/12/15 10:26:51;;;;;;;7.47;5.00;;;;;;;4.96;100.00;102542.44;5021160;28;20189;-70
2023/12/15 10:29:20;;;;;;;3.78;3.47;;;;;;;5.06;100.00;102543.41;5022590;28;20559;-68
2023/12/15 10:31:51;;;;;;;7.78;7.18;;;;;;;5.08;100.00;102542.28;5039895;28;20189;-68
2023/12/15 10:34:24;;;;;;;7.30;4.63;;;;;;;5.23;100.00;102540.16;5024414;28;20590;-68
2023/12/15 10:36:54;;;;;;;8.55;6.00;;;;;;;5.05;100.00;102545.22;5026070;28;20208;-67
2023/12/15 10:39:24;;;;;;;6.60;4.32;;;;;;;5.09;100.00;102552.03;5028905;28;20208;-68
2023/12/15 10:41:55;;;;;;;5.00;4.60;;;;;;;5.02;100.00;102547.31;5032490;28;20197;-66
2023/12/15 10:44:27;;;;;;;5.50;5.00;;;;;;;5.14;100.00;102535.56;5026171;28;20209;-69
2023/12/15 10:46:57;;;;;;;6.07;5.35;;;;;;;5.07;100.00;102532.56;5025434;28;20646;-68
2023/12/15 10:49:28;;;;;;;6.88;6.35;;;;;;;4.94;100.00;102541.75;5024461;28;20686;-69
2023/12/15 10:52:10;;;;;;;7.13;4.82;;;;;;;4.91;100.00;102534.78;5018694;28;20186;-69
2023/12/15 10:54:42;;;;;;;4.82;4.43;;;;;;;4.80;100.00;102542.84;5034429;28;20653;-69
2023/12/15 10:57:11;;;;;;;4.80;3.08;;;;;;;4.93;100.00;102531.97;5034056;28;20551;-68
2023/12/15 10:59:41;;;;;;;4.70;4.30;;;;;;;4.90;100.00;102532.22;5041939;28;20205;-69
2023/12/15 11:02:12;;;;;;;3.90;2.85;;;;;;;5.13;100.00;102528.50;5029240;28;20198;-69
2023/12/15 11:04:43;;;;;;;5.90;4.80;;;;;;;5.37;100.00;102537.19;5031559;28;20235;-68
2023/12/15 11:07:12;;;;;;;15.13;7.70;;;;;;;5.13;100.00;102536.56;5029312;28;20197;-69
2023/12/15 11:09:42;;;;;;;9.55;7.55;;;;;;;5.06;100.00;102540.72;5025350;28;20196;-68
2023/12/15 11:12:22;;;;;;;9.32;4.53;;;;;;;5.11;100.00;102546.56;5026514;28;20296;-68
2023/12/15 11:14:57;;;;;;;4.15;3.17;;;;;;;5.10;100.00;102545.69;5028246;28;20635;-67
2023/12/15 11:17:27;;;;;;;6.32;4.40;;;;;;;4.90;100.00;102540.25;5029357;28;20203;-69
2023/12/15 11:20:06;;;;;;;6.68;6.03;;;;;;;5.07;100.00;102539.75;5030952;28;20185;-68
2023/12/15 11:22:42;;;;;;;6.13;3.65;;;;;;;5.11;100.00;102543.88;5030435;28;20749;-67
2023/12/15 11:25:19;;;;;;;4.45;4.03;;;;;;;4.97;100.00;102542.34;5029014;28;20214;-69
2023/12/15 11:28:02;;;;;;;4.05;3.65;;;;;;;5.07;100.00;102534.38;5028921;28;20217;-69
2023/12/15 11:30:34;;;;;;;5.95;2.95;;;;;;;4.88;100.00;102535.03;5023595;28;20277;-69
2023/12/15 11:33:39;;;;;;;3.85;3.60;;;;;;;4.86;100.00;102542.34;5027215;28;20201;-70
2023/12/15 11:36:13;;;;;;;3.60;2.83;;;;;;;4.77;100.00;102538.59;5024808;28;20301;-69